Time;durP1;ratioP1;P1;durP2;ratioP2;P2;SDS_P1;SDS_P2;PMS_P1;PMS_P2;Temp;Humidity;BMP_temperature;BMP_pressure;BME280_temperature;BME280_humidity;BME280_pressure;Samples;Min_cycle;Max_cycle;Signal;HPM_P1;HPM_P2
2023/09/21 00:00:16;;;;;;;3.38;1.73;;;;;;;;;;5077718;28;20450;-69
2023/09/21 00:02:44;;;;;;;5.18;1.58;;;;;;;;;;5091377;28;20034;-69
2023/09/21 00:05:10;;;;;;;3.75;1.35;;;;;;;;;;5046065;28;20023;-69
2023/09/21 00:07:36;;;;;;;4.00;1.80;;;;;;;;;;5066589;28;20016;-68
2023/09/21 00:10:02;;;;;;;4.95;1.50;;;;;;;;;;5089399;28;20034;-68
2023/09/21 00:12:27;;;;;;;3.70;1.48;;;;;;;;;;5077279;28;20028;-68
2023/09/21 00:14:54;;;;;;;2.77;1.30;;;;;;;;;;5089374;28;20028;-68
2023/09/21 00:17:19;;;;;;;2.83;1.10;;;;;;;;;;5079934;28;20271;-68
2023/09/21 00:19:45;;;;;;;3.30;1.50;;;;;;;;;;5071894;28;20016;-68
2023/09/21 00:22:10;;;;;;;5.18;1.73;;;;;;;;;;5071897;28;20294;-68
2023/09/21 00:24:35;;;;;;;3.25;1.55;;;;;;;;;;5085477;28;20073;-68
2023/09/21 00:27:02;;;;;;;2.15;1.05;;;;;;;;;;5089808;28;20024;-69
2023/09/21 00:29:30;;;;;;;3.22;1.70;;;;;;;;;;5087310;28;20069;-69
2023/09/21 00:31:58;;;;;;;3.55;1.30;;;;;;;;;;5086603;28;20135;-69
2023/09/21 00:34:23;;;;;;;5.28;1.50;;;;;;;;;;5084383;28;20093;-69
2023/09/21 00:36:49;;;;;;;2.95;1.35;;;;;;;;;;5087989;28;20393;-69
2023/09/21 00:39:15;;;;;;;3.15;1.10;;;;;;;;;;5083963;28;20012;-69
2023/09/21 00:41:40;;;;;;;3.13;1.52;;;;;;;;;;5085566;28;20028;-69
2023/09/21 00:44:06;;;;;;;3.65;1.33;;;;;;;;;;5079234;28;20016;-69
2023/09/21 00:46:35;;;;;;;6.82;1.60;;;;;;;;;;5078484;28;20071;-69
2023/09/21 00:49:01;;;;;;;3.80;1.75;;;;;;;;;;5083531;28;20374;-69
2023/09/21 00:51:27;;;;;;;3.35;1.50;;;;;;;;;;5076374;28;20032;-69
2023/09/21 00:53:54;;;;;;;2.92;1.38;;;;;;;;;;5077377;28;20503;-69
2023/09/21 00:56:20;;;;;;;3.40;1.40;;;;;;;;;;5089037;28;20028;-69
2023/09/21 00:58:50;;;;;;;3.30;1.52;;;;;;;;;;5076849;28;20173;-69
2023/09/21 01:01:16;;;;;;;3.90;1.80;;;;;;;;;;5082287;28;20207;-70
2023/09/21 01:03:43;;;;;;;4.20;1.45;;;;;;;;;;5092908;28;20374;-69
2023/09/21 01:06:11;;;;;;;2.85;1.30;;;;;;;;;;5090229;28;20024;-69
2023/09/21 01:08:37;;;;;;;2.10;1.08;;;;;;;;;;5081188;28;20487;-69
2023/09/21 01:11:08;;;;;;;6.90;1.75;;;;;;;;;;5094870;28;20117;-69
2023/09/21 01:13:35;;;;;;;5.65;1.25;;;;;;;;;;5074660;28;20379;-68
2023/09/21 01:16:01;;;;;;;3.70;1.70;;;;;;;;;;5074583;28;20021;-67
2023/09/21 01:18:27;;;;;;;3.33;1.40;;;;;;;;;;5078189;28;20351;-68
2023/09/21 01:20:56;;;;;;;3.08;1.27;;;;;;;;;;5084728;28;20039;-68
2023/09/21 01:23:24;;;;;;;3.00;1.35;;;;;;;;;;5081099;28;20046;-68
2023/09/21 01:25:50;;;;;;;2.92;1.40;;;;;;;;;;5091570;28;20379;-68
2023/09/21 01:28:19;;;;;;;2.72;1.35;;;;;;;;;;5078308;28;20028;-68
2023/09/21 01:30:45;;;;;;;2.67;1.20;;;;;;;;;;5076007;28;20059;-68
2023/09/21 01:33:15;;;;;;;2.45;0.93;;;;;;;;;;5077832;28;20044;-68
2023/09/21 01:35:42;;;;;;;2.42;1.20;;;;;;;;;;5078336;28;20028;-67
2023/09/21 01:38:07;;;;;;;2.70;1.25;;;;;;;;;;5083006;28;20459;-67
2023/09/21 01:40:34;;;;;;;3.80;1.70;;;;;;;;;;5078797;28;20074;-68
2023/09/21 01:43:03;;;;;;;2.78;1.27;;;;;;;;;;5083338;28;20017;-68
2023/09/21 01:45:29;;;;;;;3.47;1.33;;;;;;;;;;5056909;28;20033;-68
2023/09/21 01:47:54;;;;;;;2.88;1.30;;;;;;;;;;5078778;28;20498;-68
2023/09/21 01:50:21;;;;;;;2.78;1.13;;;;;;;;;;5083371;28;20056;-68
2023/09/21 01:52:46;;;;;;;2.83;1.23;;;;;;;;;;5074520;28;20043;-68
2023/09/21 01:55:11;;;;;;;3.08;1.40;;;;;;;;;;5083908;28;20028;-68
2023/09/21 01:57:40;;;;;;;3.83;1.37;;;;;;;;;;5090814;28;20020;-69
2023/09/21 02:00:21;;;;;;;3.85;1.20;;;;;;;;;;5078412;28;20292;-69
2023/09/21 02:02:47;;;;;;;2.72;1.10;;;;;;;;;;5074670;28;20060;-69
2023/09/21 02:05:13;;;;;;;3.33;1.38;;;;;;;;;;5086410;28;20066;-68
2023/09/21 02:07:39;;;;;;;2.55;1.30;;;;;;;;;;5088678;28;20443;-68
2023/09/21 02:10:10;;;;;;;3.38;1.25;;;;;;;;;;5082844;28;20111;-68
2023/09/21 02:12:37;;;;;;;3.15;1.55;;;;;;;;;;5080150;28;20032;-68
2023/09/21 02:15:02;;;;;;;2.90;1.35;;;;;;;;;;5074534;28;20029;-68
2023/09/21 02:17:29;;;;;;;4.85;1.20;;;;;;;;;;5087830;28;20482;-68
2023/09/21 02:19:54;;;;;;;4.80;1.70;;;;;;;;;;5074951;28;20036;-68
2023/09/21 02:22:20;;;;;;;2.60;1.30;;;;;;;;;;5085581;28;20020;-68
2023/09/21 02:24:46;;;;;;;5.82;1.52;;;;;;;;;;5075105;28;20263;-68
2023/09/21 02:27:11;;;;;;;2.75;1.20;;;;;;;;;;5074593;28;20103;-68
2023/09/21 02:29:40;;;;;;;5.95;1.52;;;;;;;;;;5091126;28;20154;-68
2023/09/21 02:32:05;;;;;;;2.83;1.33;;;;;;;;;;5088447;28;20057;-68
2023/09/21 02:34:31;;;;;;;3.72;1.10;;;;;;;;;;5070638;28;20024;-68
2023/09/21 02:36:56;;;;;;;3.57;1.47;;;;;;;;;;5085374;28;20487;-68
2023/09/21 02:39:21;;;;;;;2.33;1.23;;;;;;;;;;5087904;28;20646;-68
2023/09/21 02:41:47;;;;;;;3.90;1.42;;;;;;;;;;5086624;28;20775;-68
2023/09/21 02:44:13;;;;;;;3.72;1.42;;;;;;;;;;5089405;28;20097;-68
2023/09/21 02:46:39;;;;;;;4.45;1.40;;;;;;;;;;5080469;28;20024;-69
2023/09/21 02:49:05;;;;;;;3.08;1.30;;;;;;;;;;5085863;28;20034;-68
2023/09/21 02:51:32;;;;;;;3.30;1.77;;;;;;;;;;5079968;28;20065;-68
2023/09/21 02:53:59;;;;;;;3.42;1.60;;;;;;;;;;5090943;28;20028;-67
2023/09/21 02:56:25;;;;;;;2.58;1.23;;;;;;;;;;5075299;28;20078;-68
2023/09/21 02:58:52;;;;;;;4.47;1.73;;;;;;;;;;5073936;28;20028;-69
2023/09/21 03:01:20;;;;;;;3.83;1.40;;;;;;;;;;5075197;28;20048;-67
2023/09/21 03:03:46;;;;;;;5.63;1.90;;;;;;;;;;5075289;28;20399;-67
2023/09/21 03:06:16;;;;;;;3.90;1.55;;;;;;;;;;5086257;28;20029;-68
2023/09/21 03:08:41;;;;;;;3.33;1.40;;;;;;;;;;5074425;28;20033;-69
2023/09/21 03:11:09;;;;;;;3.20;1.42;;;;;;;;;;5090748;28;20024;-68
2023/09/21 03:13:35;;;;;;;4.32;1.65;;;;;;;;;;5091672;28;20103;-68
2023/09/21 03:16:00;;;;;;;4.70;1.65;;;;;;;;;;5089714;28;20099;-68
2023/09/21 03:18:25;;;;;;;4.32;1.40;;;;;;;;;;5083036;28;20103;-68
2023/09/21 03:20:51;;;;;;;5.10;1.52;;;;;;;;;;5087081;28;20142;-68
2023/09/21 03:23:17;;;;;;;4.22;1.58;;;;;;;;;;5092345;28;20028;-68
2023/09/21 03:25:43;;;;;;;3.78;1.63;;;;;;;;;;5091234;28;20032;-69
2023/09/21 03:28:15;;;;;;;2.88;1.20;;;;;;;;;;5092073;28;20475;-67
2023/09/21 03:30:41;;;;;;;4.03;1.33;;;;;;;;;;5090969;28;20016;-68
2023/09/21 03:33:07;;;;;;;4.35;1.65;;;;;;;;;;5092212;28;20035;-68
2023/09/21 03:35:33;;;;;;;3.08;1.40;;;;;;;;;;5085899;28;20049;-68
2023/09/21 03:37:58;;;;;;;3.83;1.67;;;;;;;;;;5064147;28;20111;-68
2023/09/21 03:40:25;;;;;;;3.28;1.67;;;;;;;;;;5077760;28;20016;-68
2023/09/21 03:42:51;;;;;;;3.88;1.65;;;;;;;;;;5082766;28;20024;-68
2023/09/21 03:45:18;;;;;;;3.25;1.42;;;;;;;;;;5081261;28;20364;-68
2023/09/21 03:47:44;;;;;;;2.92;1.30;;;;;;;;;;5085371;28;20095;-69
2023/09/21 03:50:14;;;;;;;5.55;1.73;;;;;;;;;;5092325;28;20046;-68
2023/09/21 03:52:40;;;;;;;2.97;1.33;;;;;;;;;;5092069;28;20059;-69
2023/09/21 03:55:07;;;;;;;3.20;1.60;;;;;;;;;;5091878;28;20058;-70
2023/09/21 03:57:33;;;;;;;3.30;1.50;;;;;;;;;;5091314;28;20024;-69
2023/09/21 03:59:59;;;;;;;2.95;1.40;;;;;;;;;;5091975;28;20054;-69
2023/09/21 04:02:25;;;;;;;3.53;1.77;;;;;;;;;;5086854;28;20029;-69
2023/09/21 04:04:50;;;;;;;2.25;1.25;;;;;;;;;;5082995;28;20024;-69
2023/09/21 04:07:17;;;;;;;5.35;1.73;;;;;;;;;;5074214;28;20368;-68
2023/09/21 04:09:43;;;;;;;3.38;1.70;;;;;;;;;;5076031;28;20047;-69
2023/09/21 04:12:08;;;;;;;3.33;1.83;;;;;;;;;;5091227;28;20074;-68
2023/09/21 04:14:34;;;;;;;3.22;1.63;;;;;;;;;;5091254;28;20049;-70
2023/09/21 04:16:59;;;;;;;3.35;1.80;;;;;;;;;;5090901;28;20060;-69
2023/09/21 04:19:24;;;;;;;3.03;1.70;;;;;;;;;;5087420;28;20032;-70
2023/09/21 04:21:50;;;;;;;3.38;1.58;;;;;;;;;;5071932;28;20055;-68
2023/09/21 04:24:19;;;;;;;3.00;1.40;;;;;;;;;;5084673;28;20131;-69
2023/09/21 04:26:44;;;;;;;3.25;1.45;;;;;;;;;;5071841;28;20414;-69
2023/09/21 04:29:09;;;;;;;3.25;1.58;;;;;;;;;;5072857;28;20037;-69
2023/09/21 04:31:38;;;;;;;3.20;1.70;;;;;;;;;;5073374;28;20056;-69
2023/09/21 04:34:03;;;;;;;3.50;1.63;;;;;;;;;;5076478;28;20049;-69
2023/09/21 04:36:30;;;;;;;5.15;1.80;;;;;;;;;;5073896;28;20025;-69
2023/09/21 04:38:55;;;;;;;3.53;1.88;;;;;;;;;;5082814;28;20028;-68
2023/09/21 04:41:21;;;;;;;4.07;1.95;;;;;;;;;;5085458;28;20016;-68
2023/09/21 04:43:46;;;;;;;3.10;1.55;;;;;;;;;;5089466;28;20487;-68
2023/09/21 04:46:12;;;;;;;3.40;1.63;;;;;;;;;;5090837;28;20100;-69
2023/09/21 04:48:39;;;;;;;4.40;1.90;;;;;;;;;;5088570;28;20043;-67
2023/09/21 04:51:04;;;;;;;3.75;1.65;;;;;;;;;;5077594;28;20024;-67
2023/09/21 04:53:29;;;;;;;3.25;1.40;;;;;;;;;;5065079;28;20070;-67
2023/09/21 04:55:55;;;;;;;3.17;1.67;;;;;;;;;;5059723;28;20036;-67
2023/09/21 04:58:23;;;;;;;2.92;1.67;;;;;;;;;;5062738;28;20021;-68
2023/09/21 05:00:49;;;;;;;3.15;1.45;;;;;;;;;;5051553;28;20028;-69
2023/09/21 05:03:14;;;;;;;5.00;1.33;;;;;;;;;;5052373;28;20467;-68
2023/09/21 05:05:39;;;;;;;3.60;1.55;;;;;;;;;;5077384;28;20028;-69
2023/09/21 05:08:05;;;;;;;3.13;1.35;;;;;;;;;;5088254;28;20016;-68
2023/09/21 05:10:30;;;;;;;4.63;1.58;;;;;;;;;;5090367;28;20055;-69
2023/09/21 05:12:57;;;;;;;3.28;1.55;;;;;;;;;;5077295;28;20374;-69
2023/09/21 05:15:23;;;;;;;5.00;1.95;;;;;;;;;;5089021;28;20034;-68
2023/09/21 05:17:48;;;;;;;3.03;1.40;;;;;;;;;;5081993;28;20036;-68
2023/09/21 05:20:15;;;;;;;4.38;1.60;;;;;;;;;;5083662;28;20032;-69
2023/09/21 05:22:41;;;;;;;3.25;1.70;;;;;;;;;;5078735;28;20020;-68
2023/09/21 05:25:06;;;;;;;3.17;1.40;;;;;;;;;;5086447;28;20024;-69
2023/09/21 05:27:32;;;;;;;3.83;1.70;;;;;;;;;;5071625;28;20025;-68
2023/09/21 05:30:01;;;;;;;4.35;1.77;;;;;;;;;;5082345;28;20020;-68
2023/09/21 05:32:26;;;;;;;3.53;1.63;;;;;;;;;;5092513;28;20023;-68
2023/09/21 05:34:52;;;;;;;2.83;1.50;;;;;;;;;;5093753;28;20118;-69
2023/09/21 05:37:18;;;;;;;3.45;1.70;;;;;;;;;;5092192;28;20020;-68
2023/09/21 05:39:45;;;;;;;4.47;1.70;;;;;;;;;;5093054;28;20031;-68
2023/09/21 05:42:10;;;;;;;3.75;1.75;;;;;;;;;;5079674;28;20382;-68
2023/09/21 05:44:36;;;;;;;4.28;1.88;;;;;;;;;;5089418;28;20023;-68
2023/09/21 05:47:01;;;;;;;2.90;1.50;;;;;;;;;;5084324;28;20035;-68
2023/09/21 05:49:27;;;;;;;4.03;1.90;;;;;;;;;;5091083;28;20467;-68
2023/09/21 05:51:53;;;;;;;3.13;2.08;;;;;;;;;;5094709;28;20068;-69
2023/09/21 05:54:29;;;;;;;2.95;1.45;;;;;;;;;;5092850;28;20141;-68
2023/09/21 05:56:55;;;;;;;3.55;1.70;;;;;;;;;;5093184;28;20035;-68
2023/09/21 05:59:22;;;;;;;3.13;1.67;;;;;;;;;;5075482;28;20020;-68
2023/09/21 06:01:48;;;;;;;3.67;1.85;;;;;;;;;;5074617;28;20372;-69
2023/09/21 06:04:14;;;;;;;3.33;1.70;;;;;;;;;;5075017;28;20017;-69
2023/09/21 06:06:39;;;;;;;4.05;2.00;;;;;;;;;;5074062;28;20150;-69
2023/09/21 06:09:07;;;;;;;5.05;1.77;;;;;;;;;;5091733;28;20064;-68
2023/09/21 06:11:32;;;;;;;3.47;1.60;;;;;;;;;;5087898;28;20043;-69
2023/09/21 06:13:58;;;;;;;4.22;1.95;;;;;;;;;;5074110;28;20016;-68
2023/09/21 06:16:23;;;;;;;3.45;1.80;;;;;;;;;;5076552;28;20119;-68
2023/09/21 06:18:48;;;;;;;3.03;1.55;;;;;;;;;;5075417;28;20025;-69
2023/09/21 06:21:17;;;;;;;4.10;2.03;;;;;;;;;;5080900;28;20016;-69
2023/09/21 06:23:44;;;;;;;8.95;1.70;;;;;;;;;;5082740;28;20030;-68
2023/09/21 06:26:09;;;;;;;3.67;1.60;;;;;;;;;;5085230;28;20102;-68
2023/09/21 06:28:34;;;;;;;4.10;1.95;;;;;;;;;;5086443;28;20071;-69
2023/09/21 06:31:04;;;;;;;4.37;2.20;;;;;;;;;;5086288;28;20088;-69
2023/09/21 06:33:32;;;;;;;3.85;1.70;;;;;;;;;;5075090;28;20313;-68
2023/09/21 06:35:57;;;;;;;4.63;2.28;;;;;;;;;;5076693;28;20021;-68
2023/09/21 06:38:23;;;;;;;3.03;1.80;;;;;;;;;;5074093;28;20098;-69
2023/09/21 06:40:48;;;;;;;3.15;1.95;;;;;;;;;;5073890;28;20019;-69
2023/09/21 06:43:13;;;;;;;3.55;2.10;;;;;;;;;;5074059;28;20483;-68
2023/09/21 06:45:38;;;;;;;3.75;1.67;;;;;;;;;;5085656;28;20081;-69
2023/09/21 06:48:05;;;;;;;6.93;2.10;;;;;;;;;;5079522;28;20034;-68
2023/09/21 06:50:30;;;;;;;3.42;1.90;;;;;;;;;;5093103;28;20058;-68
2023/09/21 06:52:56;;;;;;;3.80;2.30;;;;;;;;;;5073959;28;20056;-69
2023/09/21 06:55:21;;;;;;;4.07;1.83;;;;;;;;;;5087961;28;20477;-68
2023/09/21 06:57:46;;;;;;;4.82;2.30;;;;;;;;;;5087559;28;20026;-69
2023/09/21 07:00:12;;;;;;;5.90;2.00;;;;;;;;;;5088475;28;20020;-68
2023/09/21 07:02:37;;;;;;;4.50;1.80;;;;;;;;;;5084386;28;20065;-68
2023/09/21 07:05:03;;;;;;;4.18;1.70;;;;;;;;;;5089563;28;20063;-68
2023/09/21 07:07:28;;;;;;;4.43;2.10;;;;;;;;;;5088669;28;20490;-68
2023/09/21 07:09:54;;;;;;;5.22;2.30;;;;;;;;;;5084987;28;20575;-68
2023/09/21 07:12:20;;;;;;;3.35;1.80;;;;;;;;;;5088425;28;20043;-69
2023/09/21 07:14:45;;;;;;;4.72;1.98;;;;;;;;;;5083650;28;20467;-69
2023/09/21 07:17:11;;;;;;;3.88;1.67;;;;;;;;;;5084297;28;20031;-68
2023/09/21 07:19:37;;;;;;;4.63;2.13;;;;;;;;;;5092470;28;20048;-69
2023/09/21 07:22:03;;;;;;;4.90;2.45;;;;;;;;;;5086360;28;20048;-68
2023/09/21 07:24:29;;;;;;;3.15;1.83;;;;;;;;;;5086681;28;20447;-68
2023/09/21 07:26:56;;;;;;;4.93;2.20;;;;;;;;;;5081012;28;20032;-68
2023/09/21 07:29:21;;;;;;;2.97;1.80;;;;;;;;;;5084971;28;20016;-68
2023/09/21 07:31:46;;;;;;;4.25;2.35;;;;;;;;;;5092015;28;20126;-68
2023/09/21 07:34:12;;;;;;;4.65;2.13;;;;;;;;;;5081907;28;20023;-70
2023/09/21 07:36:38;;;;;;;3.30;1.63;;;;;;;;;;5077339;28;20062;-68
2023/09/21 07:39:08;;;;;;;5.03;1.80;;;;;;;;;;5081000;28;20040;-67
2023/09/21 07:41:34;;;;;;;3.25;1.90;;;;;;;;;;5081362;28;20032;-68
2023/09/21 07:43:59;;;;;;;3.33;1.83;;;;;;;;;;5077511;28;20023;-68
2023/09/21 07:46:24;;;;;;;4.43;2.10;;;;;;;;;;5072808;28;20066;-67
2023/09/21 07:48:49;;;;;;;5.28;2.25;;;;;;;;;;5086850;28;20463;-68
2023/09/21 07:51:15;;;;;;;5.03;1.80;;;;;;;;;;5074869;28;20024;-68
2023/09/21 07:53:41;;;;;;;3.80;1.98;;;;;;;;;;5072055;28;20271;-68
2023/09/21 07:56:11;;;;;;;4.03;2.17;;;;;;;;;;5072771;28;20062;-68
2023/09/21 07:58:37;;;;;;;5.32;2.03;;;;;;;;;;5084315;28;20081;-68
2023/09/21 08:01:02;;;;;;;3.10;1.75;;;;;;;;;;5073344;28;20379;-69
2023/09/21 08:03:28;;;;;;;3.58;1.55;;;;;;;;;;5072561;28;20028;-69
2023/09/21 08:05:53;;;;;;;3.30;1.60;;;;;;;;;;5072268;28;20544;-68
2023/09/21 08:08:18;;;;;;;3.33;1.63;;;;;;;;;;5082862;28;20645;-68
2023/09/21 08:10:44;;;;;;;3.75;1.67;;;;;;;;;;5085618;28;20080;-68
2023/09/21 08:13:11;;;;;;;4.53;1.73;;;;;;;;;;5091286;28;20032;-68
2023/09/21 08:15:36;;;;;;;2.92;1.30;;;;;;;;;;5091823;28;20398;-68
2023/09/21 08:18:01;;;;;;;3.78;1.50;;;;;;;;;;5090990;28;20036;-68
2023/09/21 08:20:28;;;;;;;2.72;1.50;;;;;;;;;;5091536;28;20020;-68
2023/09/21 08:22:53;;;;;;;2.55;1.38;;;;;;;;;;5088504;28;20040;-68
2023/09/21 08:25:19;;;;;;;3.10;1.50;;;;;;;;;;5089569;28;20020;-68
2023/09/21 08:27:45;;;;;;;3.45;1.60;;;;;;;;;;5087010;28;20020;-68
2023/09/21 08:30:12;;;;;;;4.75;1.38;;;;;;;;;;5089575;28;20020;-68
2023/09/21 08:32:39;;;;;;;3.80;1.83;;;;;;;;;;5085872;28;20104;-68
2023/09/21 08:35:04;;;;;;;3.08;1.77;;;;;;;;;;5089167;28;20116;-68
2023/09/21 08:37:31;;;;;;;4.78;1.77;;;;;;;;;;5088544;28;20447;-69
2023/09/21 08:39:56;;;;;;;4.05;1.85;;;;;;;;;;5084873;28;20097;-67
2023/09/21 08:42:22;;;;;;;2.80;1.38;;;;;;;;;;5081401;28;20475;-68
2023/09/21 08:44:47;;;;;;;2.85;1.40;;;;;;;;;;5082702;28;20107;-68
2023/09/21 08:47:14;;;;;;;2.20;1.23;;;;;;;;;;5084553;28;20027;-68
2023/09/21 08:49:45;;;;;;;3.95;1.45;;;;;;;;;;5080603;28;20070;-68
2023/09/21 08:52:11;;;;;;;2.95;1.40;;;;;;;;;;5084242;28;20433;-68
2023/09/21 08:54:36;;;;;;;3.85;1.92;;;;;;;;;;5079400;28;20020;-68
2023/09/21 08:57:02;;;;;;;3.92;1.95;;;;;;;;;;5076386;28;20029;-68
2023/09/21 08:59:28;;;;;;;2.60;1.35;;;;;;;;;;5074203;28;20031;-68
2023/09/21 09:01:55;;;;;;;5.10;1.83;;;;;;;;;;5074776;28;20025;-67
2023/09/21 09:04:21;;;;;;;4.90;1.60;;;;;;;;;;5074077;28;20040;-68
2023/09/21 09:06:47;;;;;;;3.05;1.38;;;;;;;;;;5076611;28;20395;-70
2023/09/21 09:09:15;;;;;;;4.45;1.75;;;;;;;;;;5077742;28;20029;-69
2023/09/21 09:11:44;;;;;;;4.28;1.33;;;;;;;;;;5086846;28;20021;-68
2023/09/21 09:14:16;;;;;;;2.90;1.40;;;;;;;;;;5085928;28;20027;-67
2023/09/21 09:16:42;;;;;;;3.45;1.40;;;;;;;;;;5092521;28;20030;-68
2023/09/21 09:19:09;;;;;;;3.35;1.30;;;;;;;;;;5088184;28;20016;-69
2023/09/21 09:21:34;;;;;;;3.30;1.27;;;;;;;;;;5087173;28;20024;-68
2023/09/21 09:24:00;;;;;;;2.45;1.35;;;;;;;;;;5081501;28;20024;-68
2023/09/21 09:26:25;;;;;;;4.40;1.35;;;;;;;;;;5088938;28;20028;-68
2023/09/21 09:28:52;;;;;;;3.90;1.40;;;;;;;;;;5085086;28;20024;-67
2023/09/21 09:31:18;;;;;;;3.33;1.40;;;;;;;;;;5077477;28;20032;-68
2023/09/21 09:33:49;;;;;;;4.22;1.30;;;;;;;;;;5089066;28;20052;-68
2023/09/21 09:36:14;;;;;;;2.55;1.15;;;;;;;;;;5086377;28;20038;-69
2023/09/21 09:38:40;;;;;;;2.90;1.00;;;;;;;;;;5086616;28;20104;-67
2023/09/21 09:41:06;;;;;;;2.45;1.42;;;;;;;;;;5089195;28;20027;-68
2023/09/21 09:43:33;;;;;;;2.42;1.20;;;;;;;;;;5088914;28;20722;-68
2023/09/21 09:46:01;;;;;;;6.78;1.55;;;;;;;;;;5081894;28;20036;-67
2023/09/21 09:48:28;;;;;;;6.35;1.42;;;;;;;;;;5088230;28;20054;-68
2023/09/21 09:50:57;;;;;;;3.83;1.50;;;;;;;;;;5091324;28;20080;-70
2023/09/21 09:53:24;;;;;;;2.50;1.25;;;;;;;;;;5091921;28;20040;-66
2023/09/21 09:55:53;;;;;;;3.63;1.40;;;;;;;;;;5089763;28;20505;-67
2023/09/21 09:58:19;;;;;;;2.90;1.30;;;;;;;;;;5087586;28;20024;-67
2023/09/21 10:00:45;;;;;;;3.08;1.40;;;;;;;;;;5088637;28;20025;-66
2023/09/21 10:03:11;;;;;;;3.25;1.38;;;;;;;;;;5087751;28;20375;-68
2023/09/21 10:05:37;;;;;;;2.40;1.20;;;;;;;;;;5079706;28;20028;-68
2023/09/21 10:08:06;;;;;;;5.63;1.73;;;;;;;;;;5089283;28;20032;-68
2023/09/21 10:10:36;;;;;;;3.60;1.40;;;;;;;;;;5090788;28;20141;-63
2023/09/21 10:13:02;;;;;;;2.60;1.20;;;;;;;;;;5092037;28;20032;-68
2023/09/21 10:15:29;;;;;;;2.72;1.17;;;;;;;;;;5083495;28;20095;-70
2023/09/21 10:17:55;;;;;;;3.10;1.30;;;;;;;;;;5083118;28;20017;-69
2023/09/21 10:20:32;;;;;;;3.45;1.77;;;;;;;;;;5088454;28;20483;-69
2023/09/21 10:23:03;;;;;;;3.47;1.80;;;;;;;;;;5083124;28;20115;-68
2023/09/21 10:25:44;;;;;;;3.83;1.42;;;;;;;;;;5086035;28;20116;-68
2023/09/21 10:28:28;;;;;;;3.25;1.60;;;;;;;;;;5092178;28;20081;-68
2023/09/21 10:31:06;;;;;;;5.53;1.33;;;;;;;;;;5081032;28;20379;-69
2023/09/21 10:33:35;;;;;;;4.55;1.17;;;;;;;;;;5085663;28;20478;-68
2023/09/21 10:36:00;;;;;;;2.78;1.20;;;;;;;;;;5083267;28;20024;-67
2023/09/21 10:38:26;;;;;;;3.65;1.27;;;;;;;;;;5076510;28;20046;-67
2023/09/21 10:40:52;;;;;;;4.57;1.50;;;;;;;;;;5082371;28;20017;-68
2023/09/21 10:43:36;;;;;;;7.63;1.55;;;;;;;;;;5077836;28;20025;-66
2023/09/21 10:46:03;;;;;;;3.38;1.52;;;;;;;;;;5076694;28;20031;-67
2023/09/21 10:48:28;;;;;;;3.83;1.58;;;;;;;;;;5087146;28;20027;-69
2023/09/21 10:50:54;;;;;;;3.42;1.58;;;;;;;;;;5090986;28;20043;-69
2023/09/21 10:53:20;;;;;;;2.80;1.60;;;;;;;;;;5092508;28;20028;-68
2023/09/21 10:55:47;;;;;;;5.90;1.70;;;;;;;;;;5071099;28;20420;-68
2023/09/21 10:58:12;;;;;;;3.90;1.45;;;;;;;;;;5083482;28;20374;-68
2023/09/21 11:00:39;;;;;;;3.35;1.30;;;;;;;;;;5076544;28;20107;-69
2023/09/21 11:03:04;;;;;;;2.97;1.40;;;;;;;;;;5075167;28;20028;-69
2023/09/21 11:05:30;;;;;;;4.47;1.50;;;;;;;;;;5077814;28;20379;-65
2023/09/21 11:07:55;;;;;;;3.13;1.42;;;;;;;;;;5087483;28;20028;-65
2023/09/21 11:10:20;;;;;;;3.45;1.30;;;;;;;;;;5087491;28;20360;-64
2023/09/21 11:12:48;;;;;;;2.78;1.23;;;;;;;;;;5089361;28;20449;-67
2023/09/21 11:15:16;;;;;;;3.60;1.40;;;;;;;;;;5075961;28;20032;-65
2023/09/21 11:17:42;;;;;;;4.95;1.40;;;;;;;;;;5082271;28;20035;-69
2023/09/21 11:20:08;;;;;;;2.22;1.15;;;;;;;;;;5083043;28;20025;-66
2023/09/21 11:22:34;;;;;;;2.83;1.10;;;;;;;;;;5089206;28;20025;-67
2023/09/21 11:24:59;;;;;;;4.70;1.60;;;;;;;;;;5089683;28;20024;-68
2023/09/21 11:27:30;;;;;;;2.28;0.98;;;;;;;;;;5088319;28;20017;-67
2023/09/21 11:29:56;;;;;;;2.72;1.10;;;;;;;;;;5088701;28;20027;-67
2023/09/21 11:32:22;;;;;;;3.72;1.30;;;;;;;;;;5081456;28;20020;-67
2023/09/21 11:34:47;;;;;;;2.35;1.08;;;;;;;;;;5083512;28;20456;-67
2023/09/21 11:37:13;;;;;;;2.45;1.00;;;;;;;;;;5066662;28;20131;-67
2023/09/21 11:39:39;;;;;;;2.92;0.88;;;;;;;;;;5085734;28;20506;-67
2023/09/21 11:42:11;;;;;;;2.20;1.10;;;;;;;;;;5089064;28;20024;-67
2023/09/21 11:44:37;;;;;;;3.33;1.42;;;;;;;;;;5078294;28;20043;-66
2023/09/21 11:47:05;;;;;;;3.10;1.23;;;;;;;;;;5089005;28;20028;-66
2023/09/21 11:49:36;;;;;;;3.30;1.23;;;;;;;;;;5091929;28;20132;-66
2023/09/21 11:52:03;;;;;;;3.03;1.27;;;;;;;;;;5090713;28;20028;-66
2023/09/21 11:54:29;;;;;;;2.85;1.10;;;;;;;;;;5079314;28;20024;-67
2023/09/21 11:56:55;;;;;;;6.80;1.40;;;;;;;;;;5090949;28;20031;-66
2023/09/21 11:59:20;;;;;;;2.20;1.27;;;;;;;;;;5095656;28;20024;-67
2023/09/21 12:01:48;;;;;;;4.85;1.20;;;;;;;;;;5091033;28;20024;-66
2023/09/21 12:04:16;;;;;;;3.75;1.42;;;;;;;;;;5079155;28;20107;-67
2023/09/21 12:06:41;;;;;;;3.63;1.50;;;;;;;;;;5075028;28;20024;-66
2023/09/21 12:09:07;;;;;;;3.05;1.42;;;;;;;;;;5075165;28;20059;-68
2023/09/21 12:11:34;;;;;;;3.47;1.50;;;;;;;;;;5084292;28;20139;-67
2023/09/21 12:14:04;;;;;;;4.15;1.48;;;;;;;;;;5084306;28;20028;-68
2023/09/21 12:16:30;;;;;;;3.95;1.63;;;;;;;;;;5080529;28;20465;-68
2023/09/21 12:18:58;;;;;;;2.72;1.63;;;;;;;;;;5072507;28;20029;-67
2023/09/21 12:21:23;;;;;;;4.05;1.83;;;;;;;;;;5073337;28;20048;-68
2023/09/21 12:23:49;;;;;;;3.33;1.38;;;;;;;;;;5071665;28;20059;-68
2023/09/21 12:26:14;;;;;;;4.82;1.58;;;;;;;;;;5071734;28;20036;-68
2023/09/21 12:28:42;;;;;;;3.90;1.60;;;;;;;;;;5072027;28;20024;-68
2023/09/21 12:31:07;;;;;;;3.58;1.92;;;;;;;;;;5072899;28;20088;-68
2023/09/21 12:33:33;;;;;;;3.85;1.83;;;;;;;;;;5071976;28;20039;-68
2023/09/21 12:36:00;;;;;;;4.00;2.10;;;;;;;;;;5084702;28;20107;-67
2023/09/21 12:38:25;;;;;;;4.45;1.92;;;;;;;;;;5082975;28;20402;-67
2023/09/21 12:40:52;;;;;;;4.30;1.90;;;;;;;;;;5072683;28;20138;-67
2023/09/21 12:43:17;;;;;;;4.80;2.03;;;;;;;;;;5084857;28;20892;-68
2023/09/21 12:45:43;;;;;;;4.20;2.40;;;;;;;;;;5078008;28;20020;-67
2023/09/21 12:48:08;;;;;;;4.22;2.42;;;;;;;;;;5058662;28;20024;-67
2023/09/21 12:50:34;;;;;;;5.95;2.47;;;;;;;;;;5090500;28;20098;-68
2023/09/21 12:52:59;;;;;;;7.10;2.15;;;;;;;;;;5088986;28;20075;-68
2023/09/21 12:55:25;;;;;;;6.07;2.10;;;;;;;;;;5089568;28;20032;-67
2023/09/21 12:57:50;;;;;;;3.28;2.38;;;;;;;;;;5090142;28;20352;-69
2023/09/21 13:00:19;;;;;;;6.03;2.10;;;;;;;;;;5090527;28;20388;-68
2023/09/21 13:02:45;;;;;;;4.00;2.17;;;;;;;;;;5082674;28;20029;-67
2023/09/21 13:05:14;;;;;;;5.00;1.88;;;;;;;;;;5086948;28;20016;-68
2023/09/21 13:07:43;;;;;;;6.93;2.75;;;;;;;;;;5078581;28;20017;-67
2023/09/21 13:10:08;;;;;;;3.55;1.83;;;;;;;;;;5085448;28;20101;-67
2023/09/21 13:12:37;;;;;;;5.05;2.80;;;;;;;;;;5090612;28;20044;-69
2023/09/21 13:15:03;;;;;;;3.75;1.90;;;;;;;;;;5091039;28;20020;-69
2023/09/21 13:17:28;;;;;;;4.47;2.28;;;;;;;;;;5067622;28;20027;-68
2023/09/21 13:19:54;;;;;;;5.03;2.42;;;;;;;;;;5083112;28;20410;-68
2023/09/21 13:22:19;;;;;;;4.40;2.75;;;;;;;;;;5080519;28;20475;-68
2023/09/21 13:24:45;;;;;;;4.45;2.65;;;;;;;;;;5077950;28;20379;-68
2023/09/21 13:27:10;;;;;;;5.25;2.88;;;;;;;;;;5084700;28;20099;-68
2023/09/21 13:29:36;;;;;;;4.75;2.97;;;;;;;;;;5079077;28;20103;-68
2023/09/21 13:32:01;;;;;;;4.40;3.17;;;;;;;;;;5070198;28;20031;-68
2023/09/21 13:34:26;;;;;;;8.70;3.95;;;;;;;;;;5074781;28;20523;-67
2023/09/21 13:36:52;;;;;;;7.78;4.63;;;;;;;;;;5071752;28;20044;-68
2023/09/21 13:39:18;;;;;;;7.38;4.82;;;;;;;;;;5086546;28;20462;-69
2023/09/21 13:41:47;;;;;;;7.10;4.45;;;;;;;;;;5072095;28;20021;-68
2023/09/21 13:44:13;;;;;;;6.03;4.70;;;;;;;;;;5063447;28;20055;-68
2023/09/21 13:46:38;;;;;;;9.47;4.50;;;;;;;;;;5075981;28;20474;-66
2023/09/21 13:49:03;;;;;;;8.05;4.03;;;;;;;;;;5087845;28;20304;-68
2023/09/21 13:51:29;;;;;;;7.20;4.32;;;;;;;;;;5091629;28;20036;-68
2023/09/21 13:53:54;;;;;;;6.03;4.25;;;;;;;;;;5091863;28;20107;-66
2023/09/21 13:56:20;;;;;;;6.85;4.07;;;;;;;;;;5086737;28;20024;-66
2023/09/21 13:58:45;;;;;;;6.57;3.63;;;;;;;;;;5086417;28;20024;-67
2023/09/21 14:01:10;;;;;;;5.50;3.92;;;;;;;;;;5089033;28;20109;-67
2023/09/21 14:03:38;;;;;;;7.50;4.15;;;;;;;;;;5080301;28;20047;-66
2023/09/21 14:06:03;;;;;;;6.05;4.05;;;;;;;;;;5084482;28;20037;-68
2023/09/21 14:08:28;;;;;;;8.23;3.53;;;;;;;;;;5080560;28;20110;-68
2023/09/21 14:10:54;;;;;;;6.38;4.13;;;;;;;;;;5087704;28;20032;-69
2023/09/21 14:13:19;;;;;;;4.78;2.97;;;;;;;;;;5086279;28;20028;-67
2023/09/21 14:15:44;;;;;;;5.32;3.10;;;;;;;;;;5092074;28;20123;-66
2023/09/21 14:18:09;;;;;;;6.40;3.90;;;;;;;;;;5078634;28;20020;-68
2023/09/21 14:20:35;;;;;;;5.60;3.00;;;;;;;;;;5093064;28;20055;-68
2023/09/21 14:23:03;;;;;;;4.95;3.15;;;;;;;;;;5091079;28;20020;-67
2023/09/21 14:25:28;;;;;;;6.80;3.65;;;;;;;;;;5092545;28;20055;-67
2023/09/21 14:27:54;;;;;;;4.97;3.20;;;;;;;;;;5088083;28;20075;-67
2023/09/21 14:30:19;;;;;;;5.88;3.65;;;;;;;;;;5088457;28;20155;-67
2023/09/21 14:32:46;;;;;;;4.97;3.30;;;;;;;;;;5078657;28;20038;-68
2023/09/21 14:35:12;;;;;;;6.68;4.18;;;;;;;;;;5087361;28;20131;-67
2023/09/21 14:37:38;;;;;;;6.53;3.40;;;;;;;;;;5087806;28;20107;-68